.
WxDataArchive / Data Records for 2007-02-22
2007-02-21 February 2007 2007-02-23

Data Records for Thursday, 22 February 2007

Time	Temp	Chill	HIndex	Humid	Dewpt	 Wind 	HiWind	WindDir	Rain 	Barom 
-----	----	-----	------	-----	-----	------	------	-------	-----	----- 
00:00	33.5	33.5	33.5	84	29.2	0	1	248	0.00	29.807 
00:05	33.5	33.5	33.5	84	29.2	1	3	248	0.00	29.801 
00:10	33.7	33.7	33.7	84	29.4	0	2	248	0.00	29.799 
00:15	33.8	33.8	33.8	84	29.5	1	3	248	0.00	29.793 
00:20	34.0	34.0	34.0	84	29.7	1	3	248	0.00	29.788 
00:25	34.0	34.0	34.0	83	29.4	0	4	248	0.00	29.785 
00:30	34.1	34.1	34.1	83	29.5	1	4	248	0.00	29.782 
00:35	34.4	34.4	34.4	83	29.8	1	4	270	0.00	29.780 
00:40	34.6	34.6	34.6	82	29.7	1	4	248	0.00	29.780 
00:45	34.7	34.7	34.7	81	29.5	1	4	270	0.00	29.771 
00:50	35.0	35.0	35.0	81	29.8	2	5	248	0.00	29.768 
00:55	35.0	35.0	35.0	81	29.8	1	4	225	0.00	29.766 
01:00	35.0	35.0	35.0	81	29.8	2	5	248	0.00	29.755 
01:05	34.9	34.9	34.9	81	29.7	2	4	248	0.00	29.754 
01:10	34.9	34.9	34.9	81	29.7	2	4	248	0.00	29.753 
01:15	35.0	35.0	35.0	80	29.5	2	6	248	0.00	29.753 
01:20	34.9	34.9	34.9	80	29.4	2	5	248	0.00	29.752 
01:25	34.9	34.9	34.9	80	29.4	2	4	248	0.00	29.749 
01:30	34.9	34.9	34.9	80	29.4	2	9	225	0.00	29.747 
01:35	34.9	34.9	34.9	80	29.4	1	4	248	0.00	29.742 
01:40	34.9	34.9	34.9	80	29.4	1	4	248	0.00	29.740 
01:45	34.9	34.9	34.9	80	29.4	2	4	248	0.00	29.736 
01:50	35.0	35.0	35.0	80	29.5	2	5	248	0.00	29.736 
01:55	35.0	35.0	35.0	80	29.5	2	5	248	0.00	29.735 
02:00	35.3	35.3	35.3	79	29.4	3	7	248	0.00	29.731 
02:05	35.3	35.3	35.3	79	29.4	2	4	248	0.00	29.727 
02:10	35.3	35.3	35.3	79	29.4	2	6	248	0.00	29.728 
02:15	35.5	35.5	35.5	79	29.6	3	6	248	0.00	29.722 
02:20	35.5	35.5	35.5	79	29.6	3	5	248	0.00	29.721 
02:25	35.6	35.6	35.6	79	29.7	3	6	248	0.00	29.720 
02:30	35.8	35.8	35.8	79	29.9	3	10	248	0.00	29.719 
02:35	35.9	35.9	35.9	79	30.0	3	9	248	0.00	29.719 
02:40	36.0	36.0	36.0	79	30.1	3	6	248	0.00	29.717 
02:45	36.2	36.2	36.2	79	30.3	3	6	248	0.00	29.715 
02:50	36.3	33.0	36.3	79	30.4	4	9	248	0.00	29.718 
02:55	36.5	33.3	36.5	79	30.6	4	8	248	0.00	29.719 
03:00	36.8	32.7	36.8	78	30.6	5	13	270	0.00	29.719 
03:05	36.9	33.7	36.9	78	30.7	4	9	248	0.00	29.717 
03:10	37.0	37.0	37.0	79	31.1	3	6	248	0.00	29.714 
03:15	37.2	37.2	37.2	79	31.3	3	7	248	0.00	29.702 
03:20	37.5	34.4	37.5	78	31.3	4	10	248	0.00	29.713 
03:25	37.8	34.8	37.8	78	31.6	4	10	270	0.00	29.713 
03:30	37.9	34.9	37.9	77	31.3	4	11	270	0.00	29.708 
03:35	37.8	37.8	37.8	77	31.2	3	7	270	0.00	29.711 
03:40	37.8	34.8	37.8	78	31.6	4	9	248	0.00	29.705 
03:45	37.8	37.8	37.8	78	31.6	3	7	270	0.00	29.702 
03:50	37.9	34.0	37.9	78	31.7	5	13	248	0.00	29.699 
03:55	38.3	35.4	38.3	78	32.1	4	13	270	0.00	29.697 
04:00	38.3	35.4	38.3	78	32.1	4	10	270	0.00	29.692 
04:05	38.3	35.4	38.3	78	32.1	4	8	248	0.00	29.687 
04:10	38.2	38.2	38.2	78	32.0	3	10	270	0.00	29.689 
04:15	38.0	35.0	38.0	78	31.8	4	12	248	0.00	29.685 
04:20	37.9	37.9	37.9	79	32.0	2	5	248	0.00	29.687 
04:25	37.5	37.5	37.5	79	31.6	2	9	248	0.00	29.686 
04:30	37.5	37.5	37.5	80	31.9	3	7	248	0.00	29.695 
04:35	37.2	37.2	37.2	81	31.9	2	4	248	0.00	29.696 
04:40	37.0	37.0	37.0	81	31.7	2	5	248	0.00	29.696 
04:45	36.9	36.9	36.9	81	31.6	2	6	270	0.00	29.696 
04:50	36.9	36.9	36.9	82	31.9	3	7	248	0.00	29.698 
04:55	36.8	36.8	36.8	82	31.8	2	7	270	0.00	29.700 
05:00	36.9	36.9	36.9	82	31.9	3	8	270	0.00	29.700 
05:05	36.9	36.9	36.9	82	31.9	3	6	270	0.00	29.703 
05:10	37.0	33.9	37.0	82	32.0	4	12	270	0.00	29.703 
05:15	36.9	36.9	36.9	82	31.9	3	10	270	0.00	29.704 
05:20	37.0	32.9	37.0	81	31.7	5	13	270	0.00	29.704 
05:25	37.0	33.9	37.0	81	31.7	4	10	270	0.00	29.704 
05:30	37.0	33.9	37.0	81	31.7	4	10	270	0.00	29.708 
05:35	36.9	33.7	36.9	81	31.6	4	9	270	0.00	29.708 
05:40	36.8	33.6	36.8	81	31.5	4	10	270	0.00	29.712 
05:45	36.5	36.5	36.5	81	31.2	3	7	248	0.00	29.711 
05:50	36.5	36.5	36.5	81	31.2	3	6	270	0.00	29.712 
05:55	36.2	36.2	36.2	81	30.9	3	9	270	0.00	29.717 
06:00	36.0	36.0	36.0	81	30.7	2	6	270	0.00	29.719 
06:05	35.9	35.9	35.9	81	30.6	2	6	270	0.00	29.723 
06:10	35.8	35.8	35.8	81	30.6	2	6	270	0.00	29.724 
06:15	35.6	35.6	35.6	81	30.4	3	6	270	0.00	29.725 
06:20	35.6	35.6	35.6	81	30.4	3	4	270	0.00	29.725 
06:25	35.6	35.6	35.6	81	30.4	3	6	270	0.00	29.727 
06:30	35.8	35.8	35.8	80	30.2	3	7	270	0.00	29.727 
06:35	35.9	35.9	35.9	79	30.0	3	6	270	0.00	29.729 
06:40	36.0	36.0	36.0	79	30.1	3	7	270	0.00	29.733 
06:45	36.2	32.9	36.2	78	30.0	4	6	270	0.00	29.736 
06:50	36.5	36.5	36.5	77	30.0	3	6	270	0.00	29.738 
06:55	36.5	36.5	36.5	76	29.7	3	7	270	0.00	29.734 
07:00	36.8	33.6	36.8	75	29.6	4	7	270	0.00	29.736 
07:05	36.8	36.8	36.8	74	29.3	3	5	270	0.00	29.737 
07:10	36.9	33.7	36.9	74	29.4	4	9	270	0.00	29.737 
07:15	36.9	33.7	36.9	73	29.1	4	9	270	0.00	29.740 
07:20	37.0	33.9	37.0	73	29.2	4	11	270	0.00	29.743 
07:25	36.9	33.7	36.9	73	29.1	4	7	270	0.00	29.747 
07:30	36.9	33.7	36.9	72	28.7	4	11	270	0.00	29.748 
07:35	37.0	32.9	37.0	71	28.5	5	19	270	0.00	29.752 
07:40	37.0	33.9	37.0	71	28.5	4	11	270	0.00	29.753 
07:45	37.0	32.9	37.0	69	27.8	5	10	270	0.00	29.754 
07:50	37.0	33.9	37.0	69	27.8	4	10	292	0.00	29.757 
07:55	37.0	32.2	37.0	67	27.1	6	13	270	0.00	29.761 
08:00	37.0	32.9	37.0	67	27.1	5	13	270	0.00	29.758 
08:05	37.0	33.9	37.0	67	27.1	4	11	292	0.00	29.768 
08:10	37.0	32.9	37.0	67	27.1	5	11	292	0.00	29.770 
08:15	37.0	32.9	37.0	67	27.1	5	11	292	0.00	29.772 
08:20	37.0	32.9	37.0	67	27.1	5	12	270	0.00	29.774 
08:25	36.9	33.7	36.9	68	27.3	4	11	270	0.00	29.777 
08:30	36.9	33.7	36.9	68	27.3	4	10	270	0.00	29.782 
08:35	36.8	33.6	36.8	68	27.2	4	14	270	0.00	29.785 
08:40	36.8	32.7	36.8	68	27.2	5	16	270	0.00	29.789 
08:45	36.8	33.6	36.8	67	26.9	4	10	292	0.00	29.791 
08:50	36.6	36.6	36.6	68	27.1	3	9	270	0.00	29.794 
08:55	36.6	32.5	36.6	68	27.1	5	10	292	0.00	29.800 
09:00	36.6	32.5	36.6	68	27.1	5	10	292	0.00	29.802 
09:05	36.5	33.3	36.5	68	27.0	4	12	315	0.00	29.804 
09:10	36.5	32.4	36.5	68	27.0	5	13	270	0.00	29.810 
09:15	36.5	32.4	36.5	65	25.9	5	14	292	0.00	29.817 
09:20	36.5	31.6	36.5	65	25.9	6	13	315	0.00	29.820 
09:25	36.3	32.1	36.3	64	25.3	5	12	338	0.00	29.819 
09:30	36.3	31.4	36.3	62	24.5	6	18	315	0.00	29.822 
09:35	36.2	32.9	36.2	63	24.8	4	11	315	0.00	29.828 
09:40	36.0	32.7	36.0	62	24.3	4	12	292	0.00	29.833 
09:45	35.9	30.9	35.9	62	24.2	6	14	292	0.00	29.838 
09:50	35.6	31.3	35.6	63	24.3	5	13	315	0.00	29.839 
09:55	35.5	30.4	35.5	63	24.2	6	15	292	0.00	29.847 
10:00	35.5	32.1	35.5	63	24.2	4	10	292	0.00	29.854 
10:05	35.5	31.2	35.5	63	24.2	5	13	315	0.00	29.857 
10:10	35.3	31.9	35.3	63	24.0	4	7	292	0.00	29.864 
10:15	35.2	30.8	35.2	63	23.9	5	10	292	0.00	29.867 
10:20	35.0	30.6	35.0	63	23.7	5	11	315	0.00	29.868 
10:25	35.0	30.6	35.0	64	24.1	5	15	292	0.00	29.875 
10:30	35.0	31.5	35.0	64	24.1	4	11	292	0.00	29.881 
10:35	34.9	31.4	34.9	65	24.3	4	14	315	0.00	29.883 
10:40	34.9	29.7	34.9	62	23.2	6	13	315	0.00	29.883 
10:45	35.0	30.6	35.0	62	23.3	5	12	315	0.00	29.894 
10:50	35.0	30.6	35.0	62	23.3	5	12	315	0.00	29.892 
10:55	35.0	29.8	35.0	62	23.3	6	14	270	0.00	29.898 
11:00	35.0	31.5	35.0	62	23.3	4	11	292	0.00	29.899 
11:05	35.5	32.1	35.5	63	24.2	4	11	292	0.00	29.900 
11:10	35.5	32.1	35.5	62	23.8	4	10	315	0.00	29.898 
11:15	35.3	30.2	35.3	63	24.0	6	14	315	0.00	29.902 
11:20	35.3	35.3	35.3	64	24.4	3	7	338	0.00	29.905 
11:25	35.3	31.9	35.3	64	24.4	4	10	292	0.00	29.905 
11:30	35.3	31.9	35.3	65	24.7	4	11	292	0.00	29.914 
11:35	35.2	30.8	35.2	65	24.6	5	13	292	0.00	29.915 
11:40	35.0	29.8	35.0	65	24.4	6	13	292	0.00	29.916 
11:45	35.0	31.5	35.0	66	24.8	4	8	315	0.00	29.926 
11:50	35.0	30.6	35.0	65	24.4	5	11	270	0.00	29.929 
11:55	34.9	30.5	34.9	66	24.7	5	10	315	0.00	29.930 
12:00	34.7	31.2	34.7	66	24.5	4	10	270	0.00	29.935 
12:05	34.7	31.2	34.7	67	24.9	4	11	292	0.00	29.933 
12:10	34.7	30.2	34.7	65	24.2	5	17	292	0.00	29.940 
12:15	34.7	31.2	34.7	65	24.2	4	15	338	0.00	29.941 
12:20	34.7	31.2	34.7	66	24.5	4	11	338	0.00	29.944 
12:25	34.6	30.1	34.6	66	24.4	5	11	315	0.00	29.946 
12:30	34.4	29.9	34.4	66	24.2	5	11	270	0.00	29.951 
12:35	34.3	29.8	34.3	67	24.5	5	15	292	0.00	29.954 
12:40	34.4	34.4	34.4	67	24.6	3	9	292	0.00	29.958 
12:45	34.6	30.1	34.6	66	24.4	5	15	270	0.00	29.957 
12:50	34.7	31.2	34.7	65	24.2	4	14	315	0.00	29.959 
12:55	34.9	34.9	34.9	66	24.7	3	10	338	0.00	29.957 
13:00	34.9	30.5	34.9	65	24.3	5	16	270	0.00	29.960 
13:05	34.7	30.2	34.7	65	24.2	5	14	270	0.00	29.961 
13:10	34.7	31.2	34.7	66	24.5	4	11	270	0.00	29.962 
13:15	34.4	29.9	34.4	66	24.2	5	12	270	0.00	29.968 
13:20	34.4	30.8	34.4	66	24.2	4	9	292	0.00	29.969 
13:25	34.4	30.8	34.4	66	24.2	4	11	292	0.00	29.968 
13:30	34.4	29.9	34.4	66	24.2	5	16	292	0.00	29.973 
13:35	34.4	29.9	34.4	66	24.2	5	16	292	0.00	29.977 
13:40	34.4	29.9	34.4	65	23.9	5	23	292	0.00	29.977 
13:45	34.4	29.9	34.4	66	24.2	5	18	315	0.00	29.978 
13:50	34.4	29.9	34.4	65	23.9	5	12	315	0.00	29.980 
13:55	34.4	29.9	34.4	65	23.9	5	12	292	0.00	29.979 
14:00	34.6	31.1	34.6	65	24.1	4	9	292	0.00	29.981 
14:05	34.9	31.4	34.9	65	24.3	4	12	270	0.00	29.980 
14:10	34.7	29.4	34.7	65	24.2	6	12	292	0.00	29.983 
14:15	34.7	30.2	34.7	65	24.2	5	11	292	0.00	29.990 
14:20	34.7	30.2	34.7	65	24.2	5	12	292	0.00	29.990 
14:25	34.6	30.1	34.6	65	24.1	5	12	270	0.00	29.990 
14:30	34.6	29.3	34.6	65	24.1	6	13	270	0.00	29.990 
14:35	34.6	30.1	34.6	65	24.1	5	13	292	0.00	29.993 
14:40	34.7	34.7	34.7	65	24.2	3	11	338	0.00	29.997 
14:45	34.9	31.4	34.9	65	24.3	4	14	270	0.00	30.001 
14:50	34.9	31.4	34.9	65	24.3	4	12	292	0.00	30.003 
14:55	35.0	35.0	35.0	65	24.4	3	8	292	0.00	30.006 
15:00	35.0	31.5	35.0	64	24.1	4	10	315	0.00	30.007 
15:05	35.2	30.8	35.2	64	24.3	5	10	315	0.00	30.013 
15:10	35.2	35.2	35.2	65	24.6	3	10	338	0.00	30.015 
15:15	35.3	31.9	35.3	64	24.4	4	10	270	0.00	30.018 
15:20	35.2	31.8	35.2	64	24.3	4	9	292	0.00	30.021 
15:25	34.9	29.7	34.9	65	24.3	6	14	292	0.00	30.022 
15:30	34.9	31.4	34.9	65	24.3	4	10	270	0.00	30.024 
15:35	35.0	30.6	35.0	65	24.4	5	11	292	0.00	30.026 
15:40	34.9	30.5	34.9	65	24.3	5	9	292	0.00	30.032 
15:45	34.9	31.4	34.9	65	24.3	4	10	315	0.00	30.037 
15:50	35.0	31.5	35.0	66	24.8	4	9	270	0.00	30.037 
15:55	35.0	31.5	35.0	65	24.4	4	11	315	0.00	30.038 
16:00	35.0	31.5	35.0	65	24.4	4	13	292	0.00	30.047 
16:05	34.9	31.4	34.9	65	24.3	4	12	338	0.00	30.047 
16:10	35.0	30.6	35.0	66	24.8	5	12	315	0.00	30.050 
16:15	35.0	35.0	35.0	65	24.4	3	8	315	0.00	30.052 
16:20	35.2	31.8	35.2	63	23.9	4	11	315	0.00	30.053 
16:25	35.2	31.8	35.2	64	24.3	4	11	292	0.00	30.054 
16:30	35.0	31.5	35.0	64	24.1	4	7	292	0.00	30.056 
16:35	35.0	30.6	35.0	65	24.4	5	12	292	0.00	30.054 
16:40	34.9	30.5	34.9	64	24.0	5	13	270	0.00	30.057 
16:45	35.0	31.5	35.0	65	24.4	4	11	292	0.00	30.057 
16:50	35.0	35.0	35.0	65	24.4	3	11	315	0.00	30.063 
16:55	34.9	34.9	34.9	65	24.3	3	9	292	0.00	30.066 
17:00	34.9	34.9	34.9	65	24.3	3	9	338	0.00	30.069 
17:05	35.0	35.0	35.0	66	24.8	3	7	292	0.00	30.071 
17:10	34.9	34.9	34.9	67	25.1	2	6	292	0.00	30.073 
17:15	34.9	34.9	34.9	67	25.1	2	7	270	0.00	30.084 
17:20	34.7	34.7	34.7	66	24.5	3	10	315	0.00	30.084 
17:25	34.6	31.1	34.6	67	24.8	4	7	315	0.00	30.086 
17:30	34.4	30.8	34.4	66	24.2	4	12	338	0.00	30.089 
17:35	34.3	34.3	34.3	67	24.5	2	10	315	0.00	30.088 
17:40	34.3	34.3	34.3	67	24.5	2	5	338	0.00	30.092 
17:45	34.4	34.4	34.4	67	24.6	2	5	270	0.00	30.098 
17:50	34.3	34.3	34.3	68	24.9	2	7	315	0.00	30.101 
17:55	34.3	34.3	34.3	68	24.9	3	10	315	0.00	30.103 
18:00	34.1	34.1	34.1	68	24.7	2	7	292	0.00	30.105 
18:05	33.8	33.8	33.8	67	24.0	3	7	292	0.00	30.105 
18:10	33.7	33.7	33.7	67	23.9	3	6	292	0.00	30.111 
18:15	33.7	33.7	33.7	68	24.3	2	4	292	0.00	30.115 
18:20	33.5	33.5	33.5	68	24.1	2	5	270	0.00	30.116 
18:25	33.4	33.4	33.4	67	23.6	2	5	292	0.00	30.120 
18:30	33.2	33.2	33.2	67	23.4	2	10	315	0.00	30.121 
18:35	33.2	33.2	33.2	66	23.1	3	6	292	0.00	30.122 
18:40	33.2	33.2	33.2	65	22.7	3	6	292	0.00	30.128 
18:45	33.2	33.2	33.2	65	22.7	2	7	338	0.00	30.132 
18:50	33.1	33.1	33.1	65	22.6	2	6	0	0.00	30.134 
18:55	33.2	33.2	33.2	65	22.7	3	9	270	0.00	30.134 
19:00	33.1	33.1	33.1	65	22.6	2	6	338	0.00	30.137 
19:05	32.9	32.9	32.9	66	22.8	2	5	292	0.00	30.140 
19:10	32.8	32.8	32.8	66	22.7	2	9	315	0.00	30.139 
19:15	32.7	32.7	32.7	67	23.0	2	6	315	0.00	30.142 
19:20	32.4	32.4	32.4	67	22.7	2	9	315	0.00	30.143 
19:25	32.2	32.2	32.2	67	22.5	2	6	292	0.00	30.151 
19:30	32.2	32.2	32.2	67	22.5	3	9	270	0.00	30.151 
19:35	32.1	32.1	32.1	67	22.4	2	6	315	0.00	30.153 
19:40	31.9	31.9	31.9	67	22.2	2	6	315	0.00	30.153 
19:45	31.8	31.8	31.8	67	22.1	1	4	292	0.00	30.153 
19:50	31.5	31.5	31.5	67	21.8	2	6	270	0.00	30.153 
19:55	31.5	31.5	31.5	67	21.8	2	7	292	0.00	30.152 
20:00	31.3	31.3	31.3	67	21.6	2	6	292	0.00	30.152 
20:05	31.2	31.2	31.2	68	21.9	1	6	292	0.00	30.153 
20:10	31.0	31.0	31.0	68	21.7	2	6	0	0.00	30.156 
20:15	30.9	30.9	30.9	68	21.6	2	5	270	0.00	30.161 
20:20	30.9	30.9	30.9	68	21.6	3	7	338	0.00	30.164 
20:25	30.7	30.7	30.7	68	21.4	2	5	338	0.00	30.166 
20:30	30.7	30.7	30.7	69	21.8	2	5	292	0.00	30.168 
20:35	30.7	30.7	30.7	69	21.8	2	5	315	0.00	30.170 
20:40	30.6	30.6	30.6	69	21.7	2	5	315	0.00	30.171 
20:45	30.4	30.4	30.4	69	21.5	2	5	270	0.00	30.176 
20:50	30.3	30.3	30.3	69	21.4	1	4	338	0.00	30.177 
20:55	30.1	30.1	30.1	69	21.2	1	4	292	0.00	30.176 
21:00	30.1	30.1	30.1	70	21.5	1	4	338	0.00	30.177 
21:05	30.1	30.1	30.1	69	21.2	2	6	315	0.00	30.180 
21:10	30.1	30.1	30.1	69	21.2	2	5	338	0.00	30.182 
21:15	30.0	30.0	30.0	69	21.1	2	4	292	0.00	30.183 
21:20	30.0	30.0	30.0	69	21.1	2	9	315	0.00	30.185 
21:25	30.0	30.0	30.0	69	21.1	2	5	270	0.00	30.187 
21:30	30.0	30.0	30.0	69	21.1	2	5	315	0.00	30.187 
21:35	29.8	29.8	29.8	69	20.9	1	4	315	0.00	30.187 
21:40	29.7	29.7	29.7	70	21.1	2	5	292	0.00	30.189 
21:45	29.7	29.7	29.7	70	21.1	2	5	292	0.00	30.194 
21:50	29.5	29.5	29.5	70	20.9	1	3	292	0.00	30.197 
21:55	29.4	29.4	29.4	70	20.8	1	4	270	0.00	30.198 
22:00	29.4	29.4	29.4	70	20.8	1	4	292	0.00	30.202 
22:05	29.1	29.1	29.1	71	20.9	1	4	270	0.00	30.203 
22:10	29.0	29.0	29.0	71	20.8	1	4	292	0.00	30.205 
22:15	29.0	29.0	29.0	71	20.8	1	5	315	0.00	30.211 
22:20	29.0	29.0	29.0	70	20.5	2	7	315	0.00	30.211 
22:25	29.0	29.0	29.0	71	20.8	1	4	270	0.00	30.215 
22:30	28.8	28.8	28.8	71	20.6	1	4	338	0.00	30.215 
22:35	28.8	28.8	28.8	70	20.3	2	5	315	0.00	30.217 
22:40	28.7	28.7	28.7	70	20.2	1	5	315	0.00	30.218 
22:45	28.5	28.5	28.5	70	20.0	1	4	292	0.00	30.219 
22:50	28.5	28.5	28.5	69	19.6	2	5	315	0.00	30.220 
22:55	28.4	28.4	28.4	69	19.5	2	5	315	0.00	30.221 
23:00	28.4	28.4	28.4	69	19.5	1	4	315	0.00	30.223 
23:05	28.2	28.2	28.2	69	19.4	1	4	338	0.00	30.224 
23:10	28.1	28.1	28.1	69	19.3	1	4	315	0.00	30.229 
23:15	28.2	28.2	28.2	68	19.0	2	7	292	0.00	30.230 
23:20	28.1	28.1	28.1	67	18.6	2	4	292	0.00	30.232 
23:25	28.1	28.1	28.1	67	18.6	2	5	292	0.00	30.233 
23:30	28.1	28.1	28.1	66	18.2	2	6	292	0.00	30.233 
23:35	27.9	27.9	27.9	66	18.0	1	4	292	0.00	30.232 
23:40	27.9	27.9	27.9	66	18.0	2	6	338	0.00	30.233 
23:45	27.8	27.8	27.8	66	17.9	2	7	292	0.00	30.234 
23:50	27.8	27.8	27.8	66	17.9	2	6	270	0.00	30.235 
23:55	27.6	27.6	27.6	66	17.8	2	6	338	0.00	30.237 

CoCoRaHS
IN-AL-39
A2 Web Hosting
Creative Commons License
GoDaddy
Look for:

loaded 2017-10-19 14:19:37 • last modified 2010-11-18 10:43:29
Privacy PolicyDisclaimer
• wx.awcolley.com is powered by PmWiki v.2002016 •
• all content (unless otherwise noted) © 2017 A W Colley